Time;durP1;ratioP1;P1;durP2;ratioP2;P2;SDS_P1;SDS_P2;PMS_P1;PMS_P2;Temp;Humidity;BMP_temperature;BMP_pressure;BME280_temperature;BME280_humidity;BME280_pressure;Samples;Min_cycle;Max_cycle;Signal;HPM_P1;HPM_P2
2022/03/30 07:17:48;;;;;;;5.28;1.73;;;21.10;90.60;;;;;;5103716;28;20059;-72
2022/03/30 07:20:16;;;;;;;4.07;2.00;;;21.00;90.00;;;;;;5130713;27;20389;-73
2022/03/30 07:22:43;;;;;;;4.80;2.03;;;21.00;90.20;;;;;;5131614;27;20529;-74
2022/03/30 07:25:11;;;;;;;5.30;1.75;;;21.00;90.60;;;;;;5128452;27;20078;-73
2022/03/30 07:27:42;;;;;;;7.53;2.70;;;21.00;90.50;;;;;;5133177;27;20069;-69
2022/03/30 07:30:10;;;;;;;5.22;2.38;;;20.90;90.90;;;;;;5112696;28;20070;-70
2022/03/30 07:32:42;;;;;;;3.53;2.15;;;20.90;91.00;;;;;;5091964;28;20066;-70
2022/03/30 07:35:10;;;;;;;5.65;2.63;;;20.90;91.10;;;;;;5092524;28;20070;-70
2022/03/30 07:37:37;;;;;;;5.78;2.60;;;20.90;90.80;;;;;;5109263;28;20062;-71
2022/03/30 07:40:06;;;;;;;7.47;2.65;;;20.80;90.80;;;;;;5110589;28;20493;-71
2022/03/30 07:42:33;;;;;;;7.38;3.08;;;20.80;91.10;;;;;;5080903;28;20467;-71
2022/03/30 07:45:00;;;;;;;6.30;2.70;;;20.80;91.40;;;;;;5130971;28;20431;-70
2022/03/30 07:47:29;;;;;;;4.93;2.33;;;20.80;91.40;;;;;;5129962;28;20027;-69
2022/03/30 07:49:57;;;;;;;5.93;2.50;;;20.80;91.40;;;;;;5130864;28;20037;-71
2022/03/30 07:52:24;;;;;;;4.00;2.28;;;20.80;91.60;;;;;;5092676;28;20082;-70
2022/03/30 07:54:52;;;;;;;5.00;2.88;;;20.70;91.60;;;;;;5114266;27;20070;-72
2022/03/30 07:57:26;;;;;;;5.47;2.50;;;20.70;91.70;;;;;;5117123;27;20038;-72
2022/03/30 07:59:54;;;;;;;6.00;2.58;;;20.70;91.60;;;;;;5129928;27;20027;-73
2022/03/30 08:02:22;;;;;;;6.90;2.40;;;20.80;91.70;;;;;;5145803;27;20040;-72
2022/03/30 08:04:50;;;;;;;7.63;2.63;;;20.70;92.00;;;;;;5112827;27;20023;-70
2022/03/30 08:07:18;;;;;;;6.53;2.60;;;20.70;92.50;;;;;;5133009;27;20121;-73
2022/03/30 08:09:45;;;;;;;4.32;2.40;;;20.70;92.90;;;;;;5133239;27;20108;-73
2022/03/30 08:12:14;;;;;;;5.85;2.60;;;20.60;93.40;;;;;;5150452;27;20546;-73
2022/03/30 08:14:42;;;;;;;7.07;2.90;;;20.50;93.90;;;;;;5130721;28;20069;-73
2022/03/30 08:17:10;;;;;;;6.80;2.90;;;20.50;94.10;;;;;;5131302;28;20035;-73
2022/03/30 10:42:54;;;;;;;13.68;2.97;;;20.40;95.20;;;;;;5100787;27;20077;-71
2022/03/30 10:45:49;;;;;;;17.65;3.47;;;20.30;95.50;;;;;;5109566;28;20104;-70
2022/03/30 10:48:37;;;;;;;12.25;3.17;;;20.20;95.60;;;;;;5093127;28;20024;-70
2022/03/30 10:51:13;;;;;;;11.93;3.55;;;20.20;95.60;;;;;;5093518;28;20038;-70
2022/03/30 10:53:51;;;;;;;20.85;4.95;;;20.20;95.70;;;;;;5110509;28;20092;-70
2022/03/30 10:56:24;;;;;;;14.00;4.22;;;20.20;95.60;;;;;;5092867;28;20418;-70
2022/03/30 10:59:01;;;;;;;11.63;4.32;;;20.20;95.60;;;;;;5110721;28;20032;-69
2022/03/30 11:01:35;;;;;;;10.38;4.30;;;20.10;95.60;;;;;;5110680;28;20413;-72
2022/03/30 11:04:03;;;;;;;14.18;4.70;;;20.20;95.70;;;;;;5108632;27;20118;-71
2022/03/30 11:06:31;;;;;;;17.30;5.43;;;20.10;95.80;;;;;;5109856;28;20028;-71
2022/03/30 11:09:02;;;;;;;14.63;4.72;;;20.10;95.50;;;;;;5071934;28;20028;-71
2022/03/30 11:11:39;;;;;;;15.23;5.00;;;20.10;95.50;;;;;;5093568;28;20043;-72
2022/03/30 11:14:39;;;;;;;20.60;4.82;;;20.10;95.30;;;;;;5092199;28;20483;-71
2022/03/30 11:17:07;;;;;;;15.55;4.53;;;20.10;95.40;;;;;;5102214;28;20428;-71
2022/03/30 11:19:59;;;;;;;16.17;4.50;;;20.00;95.50;;;;;;5092490;28;20024;-71
2022/03/30 11:22:28;;;;;;;15.07;5.35;;;20.10;95.50;;;;;;5110150;28;20443;-72
2022/03/30 11:25:18;;;;;;;13.63;4.45;;;20.10;95.50;;;;;;5079796;28;20142;-72
2022/03/30 11:28:07;;;;;;;11.57;4.38;;;20.10;95.40;;;;;;5093298;28;20027;-71
2022/03/30 11:30:38;;;;;;;13.40;4.00;;;20.10;95.60;;;;;;5083678;28;20513;-71
2022/03/30 11:33:19;;;;;;;10.77;3.97;;;20.10;95.30;;;;;;5110670;28;20110;-72
2022/03/30 11:35:48;;;;;;;15.10;3.97;;;20.10;95.30;;;;;;5092702;28;20105;-72
2022/03/30 11:38:23;;;;;;;13.38;3.78;;;20.10;95.40;;;;;;5076378;28;20122;-72
2022/03/30 11:40:52;;;;;;;10.18;3.83;;;20.10;95.50;;;;;;5110314;28;20542;-72
2022/03/30 11:52:34;;;;;;;19.02;5.13;;;20.10;94.70;;;;;;5090573;27;20112;-72
2022/03/30 11:55:01;;;;;;;14.85;4.45;;;20.10;94.80;;;;;;5094971;27;20146;-70
2022/03/30 11:57:28;;;;;;;14.40;4.70;;;20.10;94.40;;;;;;5127914;27;20046;-73
2022/03/30 12:00:03;;;;;;;10.15;3.75;;;20.10;94.50;;;;;;5135228;27;20525;-71
2022/03/30 12:02:30;;;;;;;13.18;4.47;;;20.10;94.40;;;;;;5128827;27;20022;-72
2022/03/30 12:04:58;;;;;;;20.15;4.30;;;20.00;94.30;;;;;;5121451;27;20118;-72
2022/03/30 12:07:25;;;;;;;17.58;4.32;;;20.00;94.30;;;;;;5123762;27;20045;-72
2022/03/30 12:09:54;;;;;;;12.80;4.32;;;20.00;94.00;;;;;;5155289;27;20031;-70
2022/03/30 12:12:37;;;;;;;17.23;3.72;;;20.00;94.10;;;;;;5136550;27;20031;-72
2022/03/30 12:15:19;;;;;;;14.35;3.67;;;20.10;94.10;;;;;;5135505;27;20118;-73
2022/03/30 12:17:54;;;;;;;15.02;3.67;;;20.00;93.90;;;;;;5155356;27;20062;-72
2022/03/30 12:20:40;;;;;;;11.20;3.22;;;20.00;93.90;;;;;;5109824;27;20034;-72
2022/03/30 12:23:10;;;;;;;12.75;3.58;;;20.00;93.80;;;;;;5137031;27;20070;-71
2022/03/30 12:25:40;;;;;;;6.95;2.63;;;20.00;93.80;;;;;;5115312;27;20516;-72
2022/03/30 12:28:07;;;;;;;9.15;2.80;;;20.00;93.80;;;;;;5112851;27;20058;-72
2022/03/30 12:30:37;;;;;;;10.32;3.45;;;20.00;93.80;;;;;;5153765;27;20027;-72
2022/03/30 12:33:04;;;;;;;15.47;4.00;;;19.90;94.10;;;;;;5133170;27;20046;-72
2022/03/30 12:35:35;;;;;;;19.45;3.35;;;19.80;94.70;;;;;;5109402;27;20027;-71
2022/03/30 12:38:12;;;;;;;11.38;2.58;;;19.70;95.60;;;;;;5133882;27;20031;-71
2022/03/30 12:40:41;;;;;;;11.52;2.70;;;19.60;96.40;;;;;;5116198;27;20469;-76
2022/03/30 12:43:09;;;;;;;7.80;2.73;;;19.60;96.90;;;;;;5120627;27;20362;-74
2022/03/30 12:46:00;;;;;;;26.60;2.95;;;19.50;97.20;;;;;;5095874;28;20041;-75
2022/03/30 12:48:28;;;;;;;16.10;3.22;;;19.50;97.40;;;;;;5097151;28;20031;-78
2022/03/30 12:50:59;;;;;;;32.92;3.72;;;19.40;97.60;;;;;;5125049;27;20054;-82
2022/03/30 12:53:35;;;;;;;;;;;19.40;97.60;;;;;;5116941;27;20130;-81
2022/03/30 12:56:17;;;;;;;13.93;3.08;;;19.30;97.80;;;;;;5115948;27;19904;-81
2022/03/30 12:58:56;;;;;;;22.02;3.58;;;19.40;98.10;;;;;;5133518;27;20491;-78
2022/03/30 13:01:37;;;;;;;33.97;3.55;;;19.50;98.30;;;;;;5098073;27;20524;-80
2022/03/30 13:04:24;;;;;;;28.10;4.38;;;19.50;98.30;;;;;;5082294;27;20122;-79
2022/03/30 13:07:11;;;;;;;20.00;3.53;;;19.50;98.30;;;;;;5115210;27;20035;-78
2022/03/30 13:09:39;;;;;;;29.48;4.13;;;19.50;98.40;;;;;;5133315;27;20063;-79
2022/03/30 13:12:07;;;;;;;25.23;3.65;;;19.50;98.40;;;;;;5098929;27;20426;-78
2022/03/30 13:14:34;;;;;;;32.25;3.53;;;19.40;98.50;;;;;;5114980;27;20023;-78
2022/03/30 13:17:09;;;;;;;28.05;3.47;;;19.40;98.50;;;;;;5098931;27;20449;-77
2022/03/30 13:19:37;;;;;;;32.85;3.50;;;19.40;98.40;;;;;;5116073;27;20443;-77
2022/03/30 13:22:07;;;;;;;24.67;2.80;;;19.40;98.50;;;;;;5115585;27;20031;-77
2022/03/30 13:24:34;;;;;;;20.77;2.60;;;19.40;98.50;;;;;;5133853;27;20024;-77
2022/03/30 13:27:03;;;;;;;12.98;2.28;;;19.30;98.50;;;;;;5114804;27;20035;-77
2022/03/30 13:29:33;;;;;;;21.02;2.95;;;19.30;98.50;;;;;;5115328;27;20031;-77
2022/03/30 13:32:00;;;;;;;17.58;2.40;;;19.30;98.50;;;;;;5098496;27;20035;-74
2022/03/30 13:34:28;;;;;;;21.77;2.50;;;19.30;98.50;;;;;;5117575;27;20069;-75
2022/03/30 13:36:55;;;;;;;22.63;2.80;;;19.30;98.50;;;;;;5078118;28;20432;-75
2022/03/30 13:39:22;;;;;;;21.80;2.65;;;19.30;98.50;;;;;;5107079;27;20038;-75
2022/03/30 13:41:52;;;;;;;15.07;3.05;;;19.30;98.60;;;;;;5098423;27;20035;-76
2022/03/30 13:44:20;;;;;;;18.90;3.53;;;19.30;98.60;;;;;;5094411;28;20027;-74
2022/03/30 13:46:47;;;;;;;29.45;4.57;;;19.30;98.60;;;;;;5094444;28;20038;-77
2022/03/30 13:49:14;;;;;;;18.70;3.80;;;19.30;98.70;;;;;;5112388;28;20034;-73
2022/03/30 13:51:42;;;;;;;22.77;3.42;;;19.30;98.70;;;;;;5109149;27;20104;-74
2022/03/30 13:54:09;;;;;;;18.73;3.55;;;19.30;98.70;;;;;;5132254;27;20062;-73
2022/03/30 13:56:36;;;;;;;17.73;3.53;;;19.30;98.60;;;;;;5133126;27;20039;-74
2022/03/30 13:59:03;;;;;;;19.27;2.88;;;19.20;98.60;;;;;;5114775;27;20043;-74
2022/03/30 14:01:32;;;;;;;15.48;2.88;;;19.10;98.50;;;;;;5132900;27;20038;-74
2022/03/30 14:04:00;;;;;;;19.63;3.50;;;19.00;98.60;;;;;;5114173;27;20031;-75
2022/03/30 14:06:27;;;;;;;14.45;3.65;;;19.00;98.60;;;;;;5132740;27;20024;-77
2022/03/30 14:08:54;;;;;;;23.95;4.75;;;19.10;98.70;;;;;;5115528;27;20038;-78
2022/03/30 14:11:21;;;;;;;22.88;3.53;;;19.10;98.70;;;;;;5133092;27;20452;-78
2022/03/30 14:13:49;;;;;;;24.92;4.82;;;19.20;98.70;;;;;;5093646;28;20035;-76
2022/03/30 14:16:19;;;;;;;23.30;4.35;;;19.20;98.80;;;;;;5094191;28;20059;-77
2022/03/30 14:18:46;;;;;;;11.27;3.45;;;19.20;98.80;;;;;;5111172;28;20034;-77
2022/03/30 14:21:13;;;;;;;17.92;4.05;;;19.20;98.80;;;;;;5109805;27;20039;-77
2022/03/30 14:23:41;;;;;;;19.13;4.57;;;19.20;98.80;;;;;;5131978;27;20023;-83
2022/03/30 14:26:08;;;;;;;35.85;5.43;;;19.30;98.80;;;;;;5114433;27;20481;-74
2022/03/30 14:28:36;;;;;;;43.65;5.25;;;19.20;98.90;;;;;;5114400;27;20055;-79
2022/03/30 14:31:03;;;;;;;24.38;5.50;;;19.30;98.90;;;;;;5132504;27;20062;-81
2022/03/30 14:33:31;;;;;;;32.38;6.00;;;19.30;98.90;;;;;;5125827;27;20036;-79
2022/03/30 14:35:59;;;;;;;32.35;6.72;;;19.30;99.00;;;;;;5093823;28;20506;-77
2022/03/30 14:38:27;;;;;;;45.47;7.50;;;19.30;99.00;;;;;;5093893;28;20481;-85
2022/03/30 14:40:54;;;;;;;33.40;6.93;;;19.30;99.00;;;;;;5106222;27;20039;-85
2022/03/30 14:43:21;;;;;;;33.40;7.22;;;19.30;99.00;;;;;;5113809;27;20042;-81
2022/03/30 14:45:48;;;;;;;31.95;7.43;;;19.30;99.00;;;;;;5113807;27;20031;-83
2022/03/30 14:48:16;;;;;;;31.67;7.40;;;19.40;99.00;;;;;;5114070;27;20488;-82
2022/03/30 14:50:43;;;;;;;37.30;7.65;;;19.40;99.00;;;;;;5113955;27;20129;-80
2022/03/30 14:53:10;;;;;;;30.55;7.10;;;19.40;99.00;;;;;;5093406;28;20071;-85
2022/03/30 14:55:37;;;;;;;32.55;6.25;;;19.30;99.00;;;;;;5110300;28;20039;-83
2022/03/30 14:58:05;;;;;;;20.23;5.88;;;19.30;99.00;;;;;;5111529;28;20039;-83
2022/03/30 15:00:32;;;;;;;27.33;6.63;;;19.30;99.00;;;;;;5113552;27;20128;-83
2022/03/30 15:02:59;;;;;;;29.60;6.47;;;19.30;99.00;;;;;;5131527;27;20141;-82
2022/03/30 15:05:27;;;;;;;34.22;7.03;;;19.30;99.00;;;;;;5131203;27;20039;-83
2022/03/30 15:07:54;;;;;;;32.35;7.05;;;19.30;99.00;;;;;;5094160;28;20062;-77
2022/03/30 15:10:22;;;;;;;32.17;6.35;;;19.40;99.10;;;;;;5103921;27;20067;-79
2022/03/30 15:12:50;;;;;;;35.22;7.55;;;19.40;99.10;;;;;;5113764;28;20039;-80
2022/03/30 15:15:17;;;;;;;33.42;7.43;;;19.30;99.00;;;;;;5126094;27;20130;-78
2022/03/30 15:17:44;;;;;;;33.65;7.28;;;19.30;99.00;;;;;;5098165;28;20057;-79
2022/03/30 15:20:12;;;;;;;36.10;7.43;;;19.30;99.10;;;;;;5132339;28;20035;-78
2022/03/30 15:22:40;;;;;;;37.63;7.30;;;19.30;99.00;;;;;;5126472;28;20061;-79
2022/03/30 15:25:09;;;;;;;37.28;7.97;;;19.30;99.10;;;;;;5093042;28;20405;-79
2022/03/30 15:27:36;;;;;;;46.17;7.32;;;19.30;99.00;;;;;;5093437;28;20451;-84
2022/03/30 15:30:03;;;;;;;40.85;7.28;;;19.30;99.00;;;;;;5114262;28;20107;-84
2022/03/30 15:32:30;;;;;;;36.33;7.63;;;19.30;99.00;;;;;;5114407;27;20480;-82
2022/03/30 15:34:58;;;;;;;42.60;8.43;;;19.30;99.00;;;;;;5114884;28;20459;-82
2022/03/30 15:37:25;;;;;;;48.40;8.30;;;19.30;99.10;;;;;;5096432;28;20409;-81
2022/03/30 15:39:52;;;;;;;53.63;7.57;;;19.30;99.00;;;;;;5114983;28;20659;-77
2022/03/30 15:42:21;;;;;;;41.00;7.53;;;19.30;99.10;;;;;;5082649;27;20073;-82
2022/03/30 15:44:48;;;;;;;42.28;7.80;;;19.20;99.10;;;;;;5135604;27;20027;-81
2022/03/30 15:47:15;;;;;;;37.20;7.45;;;19.20;99.00;;;;;;5117625;27;20034;-83
2022/03/30 15:49:43;;;;;;;41.40;8.35;;;19.20;99.00;;;;;;5135588;27;20126;-80
2022/03/30 15:52:12;;;;;;;38.17;6.53;;;19.10;99.00;;;;;;5115249;27;20125;-81
2022/03/30 15:54:41;;;;;;;37.50;6.50;;;19.00;98.90;;;;;;5127855;27;20035;-79
2022/03/30 15:57:08;;;;;;;34.08;6.13;;;18.90;98.80;;;;;;5135397;27;20027;-78
2022/03/30 15:59:36;;;;;;;31.58;6.07;;;18.80;98.80;;;;;;5135588;27;20035;-80
2022/03/30 16:02:05;;;;;;;31.80;6.38;;;18.80;98.80;;;;;;5116423;27;20038;-77
2022/03/30 16:04:33;;;;;;;31.83;6.38;;;18.80;98.80;;;;;;5099498;27;20400;-77
2022/03/30 16:07:02;;;;;;;27.98;6.55;;;18.70;98.70;;;;;;5117159;27;20039;-76
2022/03/30 16:09:30;;;;;;;33.85;6.50;;;18.70;98.70;;;;;;5099542;27;20035;-77
2022/03/30 16:12:13;;;;;;;30.23;6.35;;;18.70;98.70;;;;;;5116871;27;20045;-78
2022/03/30 16:14:44;;;;;;;33.35;6.18;;;18.70;98.70;;;;;;5113356;28;20443;-77
2022/03/30 16:17:11;;;;;;;33.08;5.90;;;18.60;98.70;;;;;;5114338;28;20129;-84
2022/03/30 16:19:39;;;;;;;31.90;6.28;;;18.60;98.70;;;;;;5114481;28;20030;-78
2022/03/30 16:22:07;;;;;;;22.90;5.32;;;18.50;98.60;;;;;;5097104;27;20032;-77
2022/03/30 16:24:34;;;;;;;23.27;5.15;;;18.50;98.60;;;;;;5099794;27;20032;-79
2022/03/30 16:27:01;;;;;;;24.55;4.75;;;18.50;98.60;;;;;;5116952;27;20394;-76
2022/03/30 16:29:29;;;;;;;27.67;5.30;;;18.30;98.40;;;;;;5134720;27;20039;-75
2022/03/30 16:31:57;;;;;;;23.92;5.05;;;18.30;98.40;;;;;;5134704;27;20050;-76
2022/03/30 16:34:24;;;;;;;26.13;4.55;;;18.30;98.50;;;;;;5099356;27;20112;-78
2022/03/30 16:36:52;;;;;;;26.73;5.03;;;18.30;98.50;;;;;;5116304;27;20057;-76
2022/03/30 16:39:25;;;;;;;26.50;5.20;;;18.30;98.50;;;;;;5134393;27;20026;-76
2022/03/30 16:41:52;;;;;;;35.78;6.78;;;18.30;98.50;;;;;;5095588;28;20054;-77
2022/03/30 16:44:20;;;;;;;29.83;5.70;;;18.20;98.50;;;;;;5062180;28;20482;-75
2022/03/30 16:46:47;;;;;;;29.20;6.32;;;18.20;98.40;;;;;;5079037;28;20409;-75
2022/03/30 16:49:15;;;;;;;30.35;7.00;;;18.20;98.50;;;;;;5078796;28;20201;-75
2022/03/30 16:51:44;;;;;;;41.83;6.28;;;18.20;98.30;;;;;;5095478;28;20069;-75
2022/03/30 16:54:12;;;;;;;26.92;6.22;;;18.20;98.40;;;;;;5112570;27;20108;-75
2022/03/30 16:56:39;;;;;;;32.75;6.60;;;18.10;98.20;;;;;;5134232;27;20035;-74
2022/03/30 16:59:07;;;;;;;27.42;5.90;;;18.10;98.20;;;;;;5115763;27;20023;-75
2022/03/30 17:01:34;;;;;;;35.00;6.07;;;18.00;97.90;;;;;;5094641;28;20028;-74
2022/03/30 17:04:01;;;;;;;34.17;6.93;;;18.00;97.90;;;;;;5110737;27;20118;-75
2022/03/30 17:06:29;;;;;;;31.30;6.45;;;18.10;97.80;;;;;;5126659;27;20185;-73
2022/03/30 17:11:42;;;;;;;29.02;6.05;;;18.10;97.40;;;;;;5116519;27;20059;-73
2022/03/30 17:14:09;;;;;;;29.50;6.30;;;18.10;97.20;;;;;;5095135;28;20027;-74
2022/03/30 17:16:36;;;;;;;28.05;6.80;;;18.00;96.70;;;;;;5095698;28;20034;-73
2022/03/30 17:19:05;;;;;;;30.25;6.25;;;18.10;96.80;;;;;;5100480;27;20056;-72
2022/03/30 17:21:32;;;;;;;27.55;6.07;;;18.20;96.70;;;;;;5115969;27;20027;-73
2022/03/30 17:23:59;;;;;;;28.88;7.22;;;18.20;96.50;;;;;;5114786;27;20059;-72
2022/03/30 17:26:27;;;;;;;33.00;6.55;;;18.20;96.70;;;;;;5115390;27;20498;-73
2022/03/30 17:28:54;;;;;;;23.02;6.40;;;18.20;96.60;;;;;;5133698;27;20076;-72
2022/03/30 17:31:21;;;;;;;31.45;6.80;;;18.20;96.00;;;;;;5114699;27;20039;-72
2022/03/30 17:33:48;;;;;;;36.90;6.53;;;18.20;96.10;;;;;;5133071;27;20650;-73
2022/03/30 17:36:17;;;;;;;26.63;6.47;;;18.20;96.30;;;;;;5114774;27;20031;-73
2022/03/30 17:38:45;;;;;;;25.45;6.10;;;18.20;96.20;;;;;;5098930;27;20027;-72
2022/03/30 17:41:12;;;;;;;22.48;6.25;;;18.20;95.70;;;;;;5115332;27;20027;-74
2022/03/30 17:43:39;;;;;;;24.10;6.35;;;18.20;94.70;;;;;;5097475;27;20038;-71
2022/03/30 17:46:06;;;;;;;25.40;6.00;;;18.20;94.50;;;;;;5093708;28;20084;-72
2022/03/30 17:54:05;;;;;;;21.77;5.28;;;18.30;93.40;;;;;;5133195;27;20085;-71
2022/03/30 17:56:32;;;;;;;22.73;5.90;;;18.30;92.70;;;;;;5114108;27;20034;-71
2022/03/30 17:58:59;;;;;;;22.45;5.03;;;18.30;92.50;;;;;;5114820;27;20035;-71
2022/03/30 18:01:27;;;;;;;26.80;6.07;;;18.30;91.80;;;;;;5114290;27;20035;-72
2022/03/30 18:03:54;;;;;;;21.20;5.30;;;18.30;92.10;;;;;;5126337;27;20460;-72
2022/03/30 18:06:21;;;;;;;11.00;3.80;;;18.30;92.20;;;;;;5110015;27;20027;-72
2022/03/30 18:08:49;;;;;;;23.05;5.18;;;18.30;91.80;;;;;;5127774;27;20320;-71
2022/03/30 18:11:17;;;;;;;24.45;5.53;;;18.30;91.50;;;;;;5131148;27;20099;-71
2022/03/30 18:13:44;;;;;;;22.00;5.38;;;18.30;91.20;;;;;;5113904;27;20087;-71
2022/03/30 18:16:12;;;;;;;19.30;5.03;;;18.30;91.10;;;;;;5113056;27;20039;-71
2022/03/30 18:18:39;;;;;;;17.90;4.63;;;18.30;90.90;;;;;;5113468;27;20055;-71
2022/03/30 18:21:07;;;;;;;20.92;5.18;;;18.30;90.90;;;;;;5096841;27;20099;-71
2022/03/30 18:23:34;;;;;;;14.95;4.75;;;18.30;89.70;;;;;;5113742;27;20587;-70
2022/03/30 18:26:01;;;;;;;16.85;4.45;;;18.30;90.00;;;;;;5114081;27;20031;-70
2022/03/30 18:28:28;;;;;;;19.05;5.10;;;18.30;89.20;;;;;;5113964;27;20400;-71
2022/03/30 18:30:55;;;;;;;24.23;4.97;;;18.30;89.60;;;;;;5113720;27;20110;-71
2022/03/30 18:33:24;;;;;;;19.75;5.65;;;18.40;89.90;;;;;;5132337;27;20031;-71
2022/03/30 18:35:52;;;;;;;21.05;5.20;;;18.30;89.50;;;;;;5132147;27;20027;-71
2022/03/30 18:38:19;;;;;;;12.95;4.28;;;18.30;88.80;;;;;;5114042;27;20027;-70
2022/03/30 18:40:50;;;;;;;22.13;5.25;;;18.30;89.20;;;;;;5113778;27;20080;-70
2022/03/30 18:43:18;;;;;;;20.73;5.28;;;18.30;88.40;;;;;;5113607;27;20039;-69
2022/03/30 18:45:45;;;;;;;17.17;4.30;;;18.30;88.00;;;;;;5132059;27;20051;-70
2022/03/30 18:48:13;;;;;;;16.77;4.53;;;18.40;87.80;;;;;;5131144;27;20030;-69
2022/03/30 18:50:40;;;;;;;14.60;5.00;;;18.40;88.10;;;;;;5113112;27;20027;-70
2022/03/30 18:53:08;;;;;;;13.70;4.60;;;18.40;88.70;;;;;;5132030;27;20118;-70
2022/03/30 18:55:37;;;;;;;15.07;4.85;;;18.40;88.20;;;;;;5131803;27;20431;-70
2022/03/30 18:58:04;;;;;;;17.15;5.47;;;18.30;88.60;;;;;;5113903;27;20605;-69
2022/03/30 19:00:31;;;;;;;12.90;4.65;;;18.40;89.30;;;;;;5096855;27;20028;-69
2022/03/30 19:05:44;;;;;;;19.52;4.50;;;18.30;88.80;;;;;;5131778;27;20549;-69
2022/03/30 19:08:14;;;;;;;16.33;4.97;;;18.30;88.20;;;;;;5113597;27;20043;-69
2022/03/30 19:10:42;;;;;;;15.02;5.13;;;18.30;87.40;;;;;;5096684;28;20035;-69
2022/03/30 19:13:09;;;;;;;14.93;4.90;;;18.30;88.10;;;;;;5113359;28;20084;-69
2022/03/30 19:15:37;;;;;;;21.83;5.45;;;18.30;87.40;;;;;;5113397;27;20023;-69
2022/03/30 19:18:05;;;;;;;16.52;4.82;;;18.30;86.90;;;;;;5113103;28;20065;-69
2022/03/30 19:20:33;;;;;;;16.40;4.38;;;18.30;87.00;;;;;;5113644;28;20027;-69
2022/03/30 19:23:00;;;;;;;16.23;5.20;;;18.30;86.80;;;;;;5096486;28;20110;-69
2022/03/30 19:25:27;;;;;;;15.02;4.28;;;18.30;86.90;;;;;;5131444;28;20038;-69
2022/03/30 19:27:56;;;;;;;17.85;4.22;;;18.20;86.40;;;;;;5131208;28;20027;-69
2022/03/30 19:30:23;;;;;;;13.80;4.13;;;18.20;86.50;;;;;;5131742;28;20096;-69
2022/03/30 19:32:52;;;;;;;9.45;4.07;;;18.20;86.30;;;;;;5131400;28;20114;-69
2022/03/30 19:35:19;;;;;;;17.48;4.50;;;18.20;86.80;;;;;;5096951;28;20062;-69
2022/03/30 19:37:47;;;;;;;11.88;4.60;;;18.20;86.20;;;;;;5113409;28;20031;-69
2022/03/30 19:40:14;;;;;;;14.52;4.53;;;18.20;86.00;;;;;;5131588;28;20051;-69
2022/03/30 19:42:41;;;;;;;17.13;4.43;;;18.20;85.40;;;;;;5131606;28;20076;-69
2022/03/30 19:45:11;;;;;;;15.32;4.28;;;18.20;85.90;;;;;;5113217;28;20035;-69
2022/03/30 19:47:39;;;;;;;10.23;4.50;;;18.20;86.30;;;;;;5113045;28;20037;-69
2022/03/30 19:50:07;;;;;;;13.32;4.65;;;18.30;86.10;;;;;;5113146;28;20407;-68
2022/03/30 19:52:35;;;;;;;13.65;4.03;;;18.20;85.70;;;;;;5113040;28;20043;-69
2022/03/30 19:55:03;;;;;;;11.82;3.95;;;18.20;86.00;;;;;;5131460;28;20104;-69
2022/03/30 19:57:30;;;;;;;13.60;4.78;;;18.20;85.60;;;;;;5131157;28;20031;-69
2022/03/30 19:59:58;;;;;;;10.85;4.40;;;18.20;85.60;;;;;;5130532;28;20131;-71
2022/03/30 20:02:25;;;;;;;13.50;4.28;;;18.20;85.60;;;;;;5130800;28;20031;-69
2022/03/30 20:04:53;;;;;;;17.48;4.05;;;18.20;84.90;;;;;;5112883;28;20028;-71
2022/03/30 20:07:20;;;;;;;15.13;4.90;;;18.20;85.30;;;;;;5112972;28;20031;-69
2022/03/30 20:09:47;;;;;;;11.15;4.30;;;18.20;85.40;;;;;;5112637;28;20142;-69
2022/03/30 20:12:14;;;;;;;19.83;4.85;;;18.20;84.40;;;;;;5112421;28;20119;-71
2022/03/30 20:14:42;;;;;;;14.02;4.50;;;18.30;85.20;;;;;;5112370;27;20032;-69
2022/03/30 20:17:09;;;;;;;9.25;4.30;;;18.30;85.10;;;;;;5115001;27;20038;-69
2022/03/30 20:19:37;;;;;;;15.10;4.55;;;18.30;84.30;;;;;;5134529;27;20054;-69
2022/03/30 20:22:04;;;;;;;15.07;4.40;;;18.20;84.00;;;;;;5116519;27;20041;-69
2022/03/30 20:24:31;;;;;;;12.88;4.35;;;18.30;85.00;;;;;;5134719;27;20374;-69
2022/03/30 20:26:59;;;;;;;18.25;4.32;;;18.30;84.70;;;;;;5134678;27;20019;-70
2022/03/30 20:29:26;;;;;;;11.68;4.15;;;18.30;84.80;;;;;;5134221;27;20035;-70
2022/03/30 20:31:53;;;;;;;14.63;4.20;;;18.30;84.70;;;;;;5134294;27;20051;-69
2022/03/30 20:34:20;;;;;;;12.77;4.97;;;18.30;85.10;;;;;;5099015;27;20481;-69
2022/03/30 20:36:47;;;;;;;13.75;4.63;;;18.30;84.30;;;;;;5133854;27;20059;-69
2022/03/30 20:39:15;;;;;;;13.50;4.53;;;18.30;84.40;;;;;;5082167;27;20028;-69
2022/03/30 20:41:42;;;;;;;15.80;4.28;;;18.30;85.40;;;;;;5134327;27;20164;-69
2022/03/30 20:44:09;;;;;;;14.32;4.68;;;18.30;84.80;;;;;;5134059;27;20023;-70
2022/03/30 20:46:38;;;;;;;12.55;3.95;;;18.30;84.70;;;;;;5133840;27;20035;-69
2022/03/30 20:49:05;;;;;;;13.80;4.03;;;18.30;83.70;;;;;;5098653;27;20485;-69
2022/03/30 20:51:32;;;;;;;11.15;4.50;;;18.30;84.30;;;;;;5115772;27;20047;-69
2022/03/30 20:53:59;;;;;;;19.13;4.40;;;18.30;85.00;;;;;;5115535;27;20050;-72
2022/03/30 20:56:27;;;;;;;17.67;4.43;;;18.30;85.60;;;;;;5134115;27;20119;-71
2022/03/30 20:58:54;;;;;;;17.40;4.97;;;18.40;85.90;;;;;;5134059;27;20192;-71
2022/03/30 21:01:21;;;;;;;11.65;4.30;;;18.40;85.00;;;;;;5133991;27;20383;-71
2022/03/30 21:03:48;;;;;;;12.55;3.80;;;18.40;85.80;;;;;;5133700;27;20494;-71
2022/03/30 21:06:15;;;;;;;10.73;3.95;;;18.40;85.40;;;;;;5133840;27;20443;-71
2022/03/30 21:08:43;;;;;;;17.75;5.45;;;18.40;85.40;;;;;;5115169;27;20043;-72
2022/03/30 21:11:11;;;;;;;17.33;4.28;;;18.40;85.20;;;;;;5115078;27;20084;-71
2022/03/30 21:13:39;;;;;;;17.45;5.03;;;18.40;85.60;;;;;;5133527;27;20038;-71
2022/03/30 21:16:07;;;;;;;14.77;3.65;;;18.40;85.30;;;;;;5133736;27;20027;-72
2022/03/30 21:18:34;;;;;;;14.65;4.25;;;18.40;85.80;;;;;;5098435;27;20027;-71
2022/03/30 21:21:01;;;;;;;16.17;4.60;;;18.40;84.70;;;;;;5133515;27;20480;-69
2022/03/30 21:23:29;;;;;;;13.10;4.72;;;18.40;85.50;;;;;;5133684;27;20295;-71
2022/03/30 21:25:56;;;;;;;13.60;4.28;;;18.40;85.40;;;;;;5114680;27;20107;-71
2022/03/30 21:28:25;;;;;;;15.90;4.45;;;18.40;85.60;;;;;;5114707;27;20035;-71
2022/03/30 21:30:52;;;;;;;16.27;5.25;;;18.40;85.10;;;;;;5133162;27;20038;-71
2022/03/30 21:33:20;;;;;;;13.77;4.53;;;18.40;85.30;;;;;;5133108;27;20062;-71
2022/03/30 21:35:47;;;;;;;12.38;4.32;;;18.40;85.60;;;;;;5132863;27;20359;-71
2022/03/30 21:38:14;;;;;;;13.57;3.92;;;18.40;85.90;;;;;;5114850;27;20118;-71
2022/03/30 21:40:41;;;;;;;18.58;5.05;;;18.40;85.70;;;;;;5133103;27;20023;-71
2022/03/30 21:43:08;;;;;;;15.82;4.40;;;18.40;85.10;;;;;;5114925;27;20031;-71
2022/03/30 21:45:36;;;;;;;21.77;4.95;;;18.50;85.70;;;;;;5114914;27;20042;-71
2022/03/30 21:48:03;;;;;;;12.85;4.70;;;18.50;85.10;;;;;;5133638;27;20057;-71
2022/03/30 21:50:31;;;;;;;13.02;4.20;;;18.50;85.50;;;;;;5132268;27;20035;-71
2022/03/30 21:52:58;;;;;;;20.42;4.63;;;18.50;86.30;;;;;;5132227;27;20042;-71
2022/03/30 21:55:25;;;;;;;17.85;5.18;;;18.50;85.60;;;;;;5132938;27;20074;-71
2022/03/30 21:57:52;;;;;;;10.23;4.43;;;18.50;85.60;;;;;;5097716;27;20046;-70
2022/03/30 22:00:24;;;;;;;15.90;4.53;;;18.50;85.90;;;;;;5097927;27;20072;-70
2022/03/30 22:02:52;;;;;;;18.65;5.68;;;18.50;85.90;;;;;;5114439;27;20027;-70
2022/03/30 22:05:21;;;;;;;18.05;5.75;;;18.60;86.30;;;;;;5097495;27;20054;-71
2022/03/30 22:07:48;;;;;;;16.35;5.40;;;18.60;86.20;;;;;;5114836;27;20436;-71
2022/03/30 22:10:15;;;;;;;16.40;5.03;;;18.60;86.00;;;;;;5114338;27;20031;-71
2022/03/30 22:12:42;;;;;;;15.10;4.43;;;18.60;86.40;;;;;;5114379;27;20455;-71
2022/03/30 22:15:10;;;;;;;25.13;5.85;;;18.60;85.90;;;;;;5132413;27;20376;-71
2022/03/30 22:17:37;;;;;;;17.52;5.32;;;18.60;85.80;;;;;;5132202;27;20031;-71
2022/03/30 22:20:05;;;;;;;20.38;5.65;;;18.70;86.30;;;;;;5114214;27;20019;-71
2022/03/30 22:22:33;;;;;;;16.05;4.85;;;18.70;86.10;;;;;;5114171;27;20384;-71
2022/03/30 22:25:00;;;;;;;16.73;5.25;;;18.80;86.90;;;;;;5132091;27;20099;-72
2022/03/30 22:27:27;;;;;;;12.27;4.65;;;18.80;86.40;;;;;;5132305;27;20028;-72
2022/03/30 22:29:54;;;;;;;15.00;5.80;;;18.80;86.80;;;;;;5132279;27;20089;-72
2022/03/30 22:37:52;;;;;;;10.82;4.18;;;18.90;85.80;;;;;;5131843;27;20061;-72
2022/03/30 22:40:19;;;;;;;11.68;4.47;;;18.90;85.50;;;;;;5096619;27;20026;-72
2022/03/30 22:42:47;;;;;;;17.05;5.50;;;19.00;85.30;;;;;;5132204;27;20037;-71
2022/03/30 22:45:14;;;;;;;16.40;4.75;;;19.00;85.90;;;;;;5131788;27;20550;-71
2022/03/30 22:47:41;;;;;;;15.40;4.60;;;19.00;86.40;;;;;;5131726;27;20039;-72
2022/03/30 22:50:09;;;;;;;16.23;5.45;;;19.00;85.90;;;;;;5131964;27;20031;-71
2022/03/30 22:52:36;;;;;;;14.73;4.55;;;19.00;86.20;;;;;;5131520;27;20050;-71